Time,TemperatureF,DewpointF,PressureIn,WindDirection,WindDirectionDegrees,WindSpeedMPH,WindSpeedGustMPH,Humidity,HourlyPrecipIn,Conditions,Clouds,dailyrainin,SoftwareType,DateUTC
2013-06-27 00:10:00,59.8,57.0,30.06,NNW,328,4.0,5.0,89,0.00,,,0.00,weatherlink.com 1.10,2013-06-27 07:10:00,
2013-06-27 00:25:00,59.2,57.0,30.06,NNW,333,3.0,5.0,91,0.00,,,0.00,weatherlink.com 1.10,2013-06-27 07:25:00,
2013-06-27 00:40:00,59.0,56.0,30.06,NNW,328,3.0,5.0,91,0.00,,,0.00,weatherlink.com 1.10,2013-06-27 07:40:00,
2013-06-27 00:55:00,58.7,56.0,30.06,NNW,341,4.0,5.0,92,0.00,,,0.00,weatherlink.com 1.10,2013-06-27 07:55:00,
2013-06-27 01:10:00,58.6,56.0,30.06,NNW,327,5.0,6.0,92,0.00,,,0.00,weatherlink.com 1.10,2013-06-27 08:10:00,
2013-06-27 01:25:00,58.6,56.0,30.06,NW,325,5.0,6.0,91,0.00,,,0.00,weatherlink.com 1.10,2013-06-27 08:25:00,
2013-06-27 01:40:00,58.6,56.0,30.06,NNW,330,4.0,6.0,92,0.00,,,0.00,weatherlink.com 1.10,2013-06-27 08:40:00,
2013-06-27 01:55:00,58.5,56.0,30.06,NNW,331,2.0,3.0,92,0.00,,,0.00,weatherlink.com 1.10,2013-06-27 08:55:00,
2013-06-27 02:10:00,58.7,56.0,30.05,NNW,329,0.0,3.0,91,0.00,,,0.00,weatherlink.com 1.10,2013-06-27 09:10:00,
2013-06-27 02:25:00,58.7,56.0,30.05,NNW,327,3.0,4.0,91,0.00,,,0.00,weatherlink.com 1.10,2013-06-27 09:25:00,
2013-06-27 02:40:00,58.4,56.0,30.05,NNW,327,2.0,3.0,91,0.00,,,0.00,weatherlink.com 1.10,2013-06-27 09:40:00,
2013-06-27 02:55:00,58.4,56.0,30.05,NNW,330,2.0,5.0,91,0.00,,,0.00,weatherlink.com 1.10,2013-06-27 09:55:00,
2013-06-27 03:10:00,58.6,56.0,30.05,NW,323,2.0,3.0,91,0.00,,,0.00,weatherlink.com 1.10,2013-06-27 10:10:00,
2013-06-27 03:25:00,58.5,56.0,30.05,NNW,330,4.0,4.0,91,0.00,,,0.00,weatherlink.com 1.10,2013-06-27 10:25:00,
2013-06-27 03:40:00,57.7,55.0,30.05,NNW,336,4.0,4.0,92,0.00,,,0.00,weatherlink.com 1.10,2013-06-27 10:40:00,
2013-06-27 03:55:00,57.6,56.0,30.05,NNW,332,2.0,4.0,93,0.00,,,0.00,weatherlink.com 1.10,2013-06-27 10:55:00,
2013-06-27 04:10:00,57.6,56.0,30.05,NNW,342,4.0,5.0,93,0.00,,,0.00,weatherlink.com 1.10,2013-06-27 11:10:00,
2013-06-27 04:25:00,58.0,56.0,30.05,NNW,345,4.0,5.0,93,0.00,,,0.00,weatherlink.com 1.10,2013-06-27 11:25:00,
2013-06-27 04:40:00,58.4,56.0,30.06,NW,316,0.0,5.0,91,0.00,,,0.00,weatherlink.com 1.10,2013-06-27 11:40:00,
2013-06-27 04:55:00,58.6,56.0,30.06,NNW,339,2.0,5.0,91,0.00,,,0.00,weatherlink.com 1.10,2013-06-27 11:55:00,
2013-06-27 05:10:00,58.3,56.0,30.07,NNW,336,1.0,2.0,91,0.00,,,0.00,weatherlink.com 1.10,2013-06-27 12:10:00,
2013-06-27 05:25:00,58.5,56.0,30.06,NNW,336,3.0,3.0,92,0.00,,,0.00,weatherlink.com 1.10,2013-06-27 12:25:00,
2013-06-27 05:40:00,58.2,56.0,30.06,NNW,328,2.0,4.0,92,0.00,,,0.00,weatherlink.com 1.10,2013-06-27 12:40:00,
2013-06-27 05:55:00,58.2,56.0,30.07,NW,323,2.0,3.0,92,0.00,,,0.00,weatherlink.com 1.10,2013-06-27 12:55:00,
2013-06-27 06:10:00,58.5,56.0,30.07,NNW,331,4.0,5.0,91,0.00,,,0.00,weatherlink.com 1.10,2013-06-27 13:10:00,
2013-06-27 06:25:00,58.5,56.0,30.07,NNW,333,3.0,4.0,92,0.00,,,0.00,weatherlink.com 1.10,2013-06-27 13:25:00,
2013-06-27 06:40:00,58.5,56.0,30.08,NNW,344,1.0,3.0,91,0.00,,,0.00,weatherlink.com 1.10,2013-06-27 13:40:00,
2013-06-27 06:55:00,59.2,57.0,30.07,NNW,331,3.0,4.0,91,0.00,,,0.00,weatherlink.com 1.10,2013-06-27 13:55:00,
2013-06-27 07:10:00,59.4,57.0,30.08,NNW,329,0.0,2.0,91,0.00,,,0.00,weatherlink.com 1.10,2013-06-27 14:10:00,
2013-06-27 07:25:00,60.2,58.0,30.09,NNW,329,1.0,3.0,91,0.00,,,0.00,weatherlink.com 1.10,2013-06-27 14:25:00,
2013-06-27 07:40:00,61.2,58.0,30.09,NNW,329,0.0,2.0,90,0.00,,,0.00,weatherlink.com 1.10,2013-06-27 14:40:00,
2013-06-27 07:55:00,61.5,58.0,30.09,NNW,329,0.0,1.0,89,0.00,,,0.00,weatherlink.com 1.10,2013-06-27 14:55:00,
2013-06-27 08:10:00,62.1,59.0,30.09,NNW,329,0.0,2.0,88,0.00,,,0.00,weatherlink.com 1.10,2013-06-27 15:10:00,
2013-06-27 08:25:00,62.1,59.0,30.10,NNW,329,0.0,0.0,88,0.00,,,0.00,weatherlink.com 1.10,2013-06-27 15:25:00,
2013-06-27 08:40:00,62.4,58.0,30.10,NNW,329,0.0,0.0,86,0.00,,,0.00,weatherlink.com 1.10,2013-06-27 15:40:00,
2013-06-27 08:55:00,62.7,59.0,30.11,NNW,329,0.0,0.0,87,0.00,,,0.00,weatherlink.com 1.10,2013-06-27 15:55:00,
2013-06-27 09:10:00,63.6,59.0,30.11,NNW,329,0.0,1.0,86,0.00,,,0.00,weatherlink.com 1.10,2013-06-27 16:10:00,
2013-06-27 09:26:00,63.8,59.0,30.11,NNW,329,0.0,1.0,84,0.00,,,0.00,weatherlink.com 1.10,2013-06-27 16:26:00,
2013-06-27 09:41:00,64.5,59.0,30.11,NNW,329,0.0,1.0,82,0.00,,,0.00,weatherlink.com 1.10,2013-06-27 16:41:00,
2013-06-27 09:56:00,64.8,60.0,30.11,NNW,329,0.0,1.0,83,0.00,,,0.00,weatherlink.com 1.10,2013-06-27 16:56:00,
2013-06-27 10:11:00,65.9,59.0,30.11,WNW,301,2.0,2.0,79,0.00,,,0.00,weatherlink.com 1.10,2013-06-27 17:11:00,
2013-06-27 10:26:00,66.3,60.0,30.11,WNW,293,1.0,2.0,81,0.00,,,0.00,weatherlink.com 1.10,2013-06-27 17:26:00,
2013-06-27 10:41:00,67.8,61.0,30.12,SSW,193,0.0,2.0,78,0.00,,,0.00,weatherlink.com 1.10,2013-06-27 17:41:00,
2013-06-27 10:56:00,67.7,61.0,30.12,SSW,193,3.0,3.0,80,0.00,,,0.00,weatherlink.com 1.10,2013-06-27 17:56:00,
2013-06-27 11:11:00,71.1,63.0,30.12,South,187,2.0,4.0,75,0.00,,,0.00,weatherlink.com 1.10,2013-06-27 18:11:00,
2013-06-27 11:26:00,72.7,62.0,30.11,SSE,165,1.0,4.0,68,0.00,,,0.00,weatherlink.com 1.10,2013-06-27 18:26:00,
2013-06-27 11:41:00,73.3,63.0,30.11,SSE,165,1.0,4.0,69,0.00,,,0.00,weatherlink.com 1.10,2013-06-27 18:41:00,
2013-06-27 11:56:00,74.4,63.0,30.11,SSE,165,2.0,3.0,68,0.00,,,0.00,weatherlink.com 1.10,2013-06-27 18:56:00,
2013-06-27 12:11:00,74.2,60.0,30.11,South,175,1.0,3.0,62,0.00,,,0.00,weatherlink.com 1.10,2013-06-27 19:11:00,
2013-06-27 12:26:00,76.4,62.0,30.10,South,180,1.0,4.0,62,0.00,,,0.00,weatherlink.com 1.10,2013-06-27 19:26:00,
2013-06-27 12:41:00,75.5,62.0,30.10,SSE,165,0.0,3.0,64,0.00,,,0.00,weatherlink.com 1.10,2013-06-27 19:41:00,
2013-06-27 12:56:00,75.1,62.0,30.10,WSW,237,0.0,4.0,63,0.00,,,0.00,weatherlink.com 1.10,2013-06-27 19:56:00,
2013-06-27 13:11:00,76.3,61.0,30.10,SSW,210,1.0,5.0,60,0.00,,,0.00,weatherlink.com 1.10,2013-06-27 20:11:00,
2013-06-27 13:26:00,77.8,61.0,30.09,SSW,210,2.0,4.0,56,0.00,,,0.00,weatherlink.com 1.10,2013-06-27 20:26:00,
2013-06-27 13:56:00,78.2,60.0,30.09,SW,234,3.0,8.0,54,0.00,,,0.00,weatherlink.com 1.10,2013-06-27 20:56:00,
2013-06-27 14:11:00,76.9,60.0,30.10,SW,233,7.0,8.0,57,0.00,,,0.00,weatherlink.com 1.10,2013-06-27 21:11:00,
2013-06-27 14:26:00,78.0,61.0,30.09,WSW,249,2.0,6.0,57,0.00,,,0.00,weatherlink.com 1.10,2013-06-27 21:26:00,
2013-06-27 14:41:00,78.5,62.0,30.09,SW,232,5.0,8.0,58,0.00,,,0.00,weatherlink.com 1.10,2013-06-27 21:41:00,
2013-06-27 14:56:00,78.0,61.0,30.09,SW,231,3.0,7.0,57,0.00,,,0.00,weatherlink.com 1.10,2013-06-27 21:56:00,
2013-06-27 15:56:00,80.3,62.0,30.09,SW,235,2.0,10.0,53,0.00,,,0.00,weatherlink.com 1.10,2013-06-27 22:56:00,
2013-06-27 16:11:00,80.2,62.0,30.09,WSW,254,7.0,13.0,54,0.00,,,0.00,weatherlink.com 1.10,2013-06-27 23:11:00,
2013-06-27 16:26:00,80.3,62.0,30.09,SW,230,4.0,11.0,53,0.00,,,0.00,weatherlink.com 1.10,2013-06-27 23:26:00,
2013-06-27 16:41:00,80.0,62.0,30.08,WSW,250,5.0,11.0,55,0.00,,,0.00,weatherlink.com 1.10,2013-06-27 23:41:00,
2013-06-27 16:56:00,79.7,62.0,30.09,SW,231,1.0,8.0,55,0.00,,,0.00,weatherlink.com 1.10,2013-06-27 23:56:00,
2013-06-27 17:26:00,78.2,62.0,30.09,SW,230,5.0,10.0,57,0.00,,,0.00,weatherlink.com 1.10,2013-06-28 00:26:00,
2013-06-27 17:41:00,78.5,61.0,30.09,WSW,250,3.0,11.0,56,0.00,,,0.00,weatherlink.com 1.10,2013-06-28 00:41:00,
2013-06-27 17:56:00,77.4,61.0,30.09,WSW,239,5.0,11.0,57,0.00,,,0.00,weatherlink.com 1.10,2013-06-28 00:56:00,
2013-06-27 18:26:00,77.5,61.0,30.09,WSW,239,4.0,8.0,58,0.00,,,0.00,weatherlink.com 1.10,2013-06-28 01:26:00,
2013-06-27 18:41:00,77.1,61.0,30.10,WSW,242,2.0,6.0,58,0.00,,,0.00,weatherlink.com 1.10,2013-06-28 01:41:00,
2013-06-27 19:27:00,76.6,61.0,30.10,South,170,1.0,8.0,58,0.00,,,0.00,weatherlink.com 1.10,2013-06-28 02:27:00,
2013-06-27 19:42:00,76.0,61.0,30.10,SW,216,0.0,9.0,60,0.00,,,0.00,weatherlink.com 1.10,2013-06-28 02:42:00,
2013-06-27 19:57:00,75.6,62.0,30.10,WSW,244,2.0,4.0,62,0.00,,,0.00,weatherlink.com 1.10,2013-06-28 02:57:00,
2013-06-27 20:12:00,75.2,61.0,30.10,SW,235,0.0,6.0,62,0.00,,,0.00,weatherlink.com 1.10,2013-06-28 03:12:00,
2013-06-27 20:27:00,75.0,61.0,30.11,SW,216,1.0,6.0,63,0.00,,,0.00,weatherlink.com 1.10,2013-06-28 03:27:00,
2013-06-27 20:42:00,74.3,63.0,30.11,West,274,0.0,2.0,67,0.00,,,0.00,weatherlink.com 1.10,2013-06-28 03:42:00,
2013-06-27 20:57:00,71.6,61.0,30.11,NW,316,0.0,3.0,70,0.00,,,0.00,weatherlink.com 1.10,2013-06-28 03:57:00,
2013-06-27 21:12:00,71.0,62.0,30.12,NW,319,1.0,3.0,74,0.00,,,0.00,weatherlink.com 1.10,2013-06-28 04:12:00,
2013-06-27 21:27:00,69.4,62.0,30.12,NW,323,0.0,2.0,77,0.00,,,0.00,weatherlink.com 1.10,2013-06-28 04:27:00,
2013-06-27 21:42:00,68.5,61.0,30.13,NW,326,2.0,4.0,78,0.00,,,0.00,weatherlink.com 1.10,2013-06-28 04:42:00,
2013-06-27 21:57:00,68.4,61.0,30.13,West,264,0.0,4.0,78,0.00,,,0.00,weatherlink.com 1.10,2013-06-28 04:57:00,
2013-06-27 22:12:00,67.4,61.0,30.13,NNW,332,2.0,4.0,80,0.00,,,0.00,weatherlink.com 1.10,2013-06-28 05:12:00,
2013-06-27 22:27:00,67.5,61.0,30.14,NW,310,2.0,3.0,80,0.00,,,0.00,weatherlink.com 1.10,2013-06-28 05:27:00,
2013-06-27 22:42:00,68.7,61.0,30.14,SW,219,0.0,2.0,77,0.00,,,0.00,weatherlink.com 1.10,2013-06-28 05:42:00,
2013-06-27 22:57:00,66.8,61.0,30.14,NNW,329,3.0,4.0,81,0.00,,,0.00,weatherlink.com 1.10,2013-06-28 05:57:00,
2013-06-27 23:12:00,66.3,61.0,30.14,NW,326,0.0,3.0,82,0.00,,,0.00,weatherlink.com 1.10,2013-06-28 06:12:00,
2013-06-27 23:27:00,66.6,61.0,30.14,NW,318,2.0,3.0,81,0.00,,,0.00,weatherlink.com 1.10,2013-06-28 06:27:00,
2013-06-27 23:42:00,65.2,60.0,30.14,NW,323,3.0,4.0,84,0.00,,,0.00,weatherlink.com 1.10,2013-06-28 06:42:00,
2013-06-27 23:57:00,64.6,60.0,30.14,NW,326,2.0,4.0,85,0.00,,,0.00,weatherlink.com 1.10,2013-06-28 06:57:00,